FACT/CPT METAR and TAF weather

Enter ICAO airport designator
Station Type Date Time Source
FACT METAR 2018/07/21 13:00 UTC NOAA

FACT 211300Z 17005KT CAVOK 22/12 Q1019 NOSIG


Station Type Date Time Source
FACT Decoded METAR 2018/07/21 13:00 UTC NOAA

Cape Town, Cape Town International Airport, South Africa (FACT) 33-59S 018-36E 0M
Jul 21, 2018 - 09:00 AM EDT / 2018.07.21 1300 UTC
Wind: from the S (170 degrees) at 6 MPH (5 KT):0
Visibility: greater than 7 mile(s):0
Temperature: 71 F (22 C)
Dew Point: 53 F (12 C)
Relative Humidity: 53%
Pressure (altimeter): 30.09 in. Hg (1019 hPa)
ob: FACT 211300Z 17005KT CAVOK 22/12 Q1019 NOSIG
cycle: 13

Station Type Date Time Source
FACT TAF 2018/07/21 12:13 UTC NOAA

TAF FACT 210730Z 2112/2212 VRB03KT 3000 MIFG SCT015 PROB40
TEMPO 2106/2109 BKN010
FM210800 19007KT 9999 FEW020 TX27/2112Z TN10/2106Z


Example: see airport list